createdAt,value
2019-01-13T00:00:26.155Z,85.09
2019-01-13T00:01:26.132Z,84.88
2019-01-13T00:02:26.121Z,84.33
2019-01-13T00:03:26.116Z,84.53
2019-01-13T00:04:26.102Z,84.57
2019-01-13T00:05:26.112Z,84.88
2019-01-13T00:06:26.095Z,84.64
2019-01-13T00:07:26.729Z,84.74
2019-01-13T00:08:26.069Z,84.43
2019-01-13T00:09:26.062Z,85.05
2019-01-13T00:10:26.065Z,84.12
2019-01-13T00:11:26.027Z,84.33
2019-01-13T00:12:26.079Z,84.22
2019-01-13T00:13:26.006Z,83.71
2019-01-13T00:14:26.908Z,83.40
2019-01-13T00:15:25.998Z,83.19
2019-01-13T00:16:25.971Z,83.09
2019-01-13T00:17:25.961Z,82.78
2019-01-13T00:18:25.947Z,82.57
2019-01-13T00:19:25.938Z,82.82
2019-01-13T00:20:25.940Z,82.98
2019-01-13T00:21:25.963Z,82.89
2019-01-13T00:22:25.942Z,82.89
2019-01-13T00:23:25.886Z,82.89
2019-01-13T00:24:25.882Z,83.61
2019-01-13T00:25:25.887Z,83.40
2019-01-13T00:26:25.853Z,83.81
2019-01-13T00:27:25.845Z,83.29
2019-01-13T00:28:25.855Z,83.50
2019-01-13T00:29:25.822Z,83.23
2019-01-13T00:30:25.829Z,84.06
2019-01-13T00:31:25.809Z,84.78
2019-01-13T00:32:25.777Z,84.57
2019-01-13T00:33:25.781Z,84.36
2019-01-13T00:34:25.784Z,84.57
2019-01-13T00:35:25.777Z,84.57
2019-01-13T00:36:25.770Z,84.88
2019-01-13T00:37:25.731Z,84.67
2019-01-13T00:38:25.725Z,84.88
2019-01-13T00:39:25.720Z,84.99
2019-01-13T00:40:25.754Z,85.30
2019-01-13T00:41:25.691Z,85.19
2019-01-13T00:42:25.678Z,85.30
2019-01-13T00:43:25.664Z,84.99
2019-01-13T00:44:25.650Z,84.99
2019-01-13T00:45:25.660Z,85.09
2019-01-13T00:46:25.631Z,84.47
2019-01-13T00:47:25.622Z,84.67
2019-01-13T00:48:25.615Z,84.57
2019-01-13T00:49:25.646Z,84.57
2019-01-13T00:50:25.629Z,84.88
2019-01-13T00:51:25.577Z,84.67
2019-01-13T00:52:25.561Z,84.36
2019-01-13T00:53:25.561Z,84.47
2019-01-13T00:54:25.541Z,84.78
2019-01-13T00:55:25.527Z,84.99
2019-01-13T00:56:25.537Z,84.67
2019-01-13T00:57:25.544Z,84.99
2019-01-13T00:58:25.499Z,84.67
2019-01-13T00:59:25.483Z,84.78
2019-01-13T01:00:26.851Z,85.30
2019-01-13T01:01:25.480Z,85.09
2019-01-13T01:02:25.451Z,84.78
2019-01-13T01:03:25.443Z,85.39
2019-01-13T01:04:25.432Z,86.02
2019-01-13T01:05:25.418Z,85.50
2019-01-13T01:06:25.420Z,85.71
2019-01-13T01:07:25.390Z,85.39
2019-01-13T01:08:25.387Z,86.05
2019-01-13T01:09:25.403Z,85.81
2019-01-13T01:10:25.371Z,85.71
2019-01-13T01:11:25.385Z,85.60
2019-01-13T01:12:25.339Z,85.81
2019-01-13T01:13:25.324Z,85.60
2019-01-13T01:14:25.367Z,85.50
2019-01-13T01:15:25.304Z,85.30
2019-01-13T01:16:25.305Z,85.50
2019-01-13T01:17:25.299Z,85.60
2019-01-13T01:18:25.280Z,85.50
2019-01-13T01:19:25.272Z,85.71
2019-01-13T01:20:25.250Z,85.30
2019-01-13T01:21:25.262Z,85.19
2019-01-13T01:22:25.231Z,85.19
2019-01-13T01:23:25.222Z,85.30
2019-01-13T01:24:25.201Z,84.81
2019-01-13T01:25:25.224Z,84.51
2019-01-13T01:26:25.273Z,84.61
2019-01-13T01:27:25.199Z,84.92
2019-01-13T01:28:25.165Z,84.81
2019-01-13T01:29:25.145Z,84.57
2019-01-13T01:30:25.136Z,84.67
2019-01-13T01:31:25.165Z,84.51
2019-01-13T01:32:25.137Z,84.92
2019-01-13T01:33:26.098Z,84.51
2019-01-13T01:34:25.097Z,84.09
2019-01-13T01:35:25.104Z,83.89
2019-01-13T01:36:25.081Z,84.81
2019-01-13T01:37:25.071Z,84.81
2019-01-13T01:38:25.054Z,84.20
2019-01-13T01:39:25.056Z,84.61
2019-01-13T01:40:25.025Z,84.20
2019-01-13T01:41:25.039Z,83.89
2019-01-13T01:42:25.028Z,84.51
2019-01-13T01:43:25.021Z,83.58
2019-01-13T01:44:25.015Z,83.17
2019-01-13T01:45:24.975Z,83.27
2019-01-13T01:46:24.968Z,83.17
2019-01-13T01:47:24.979Z,82.86
2019-01-13T01:48:24.935Z,83.13
2019-01-13T01:49:24.934Z,82.71
2019-01-13T01:50:24.985Z,82.61
2019-01-13T01:51:24.913Z,81.99
2019-01-13T01:52:24.921Z,81.89
2019-01-13T01:53:24.881Z,81.79
2019-01-13T01:54:24.867Z,81.68
2019-01-13T01:55:24.902Z,81.89
2019-01-13T01:56:24.847Z,81.79
2019-01-13T01:57:24.855Z,81.89
2019-01-13T01:58:24.852Z,82.30
2019-01-13T01:59:24.813Z,81.37
2019-01-13T02:00:24.804Z,81.48
2019-01-13T02:01:24.789Z,81.27
2019-01-13T02:02:24.809Z,81.17
2019-01-13T02:03:24.798Z,81.27
2019-01-13T02:04:24.779Z,80.96
2019-01-13T02:05:24.784Z,80.14
2019-01-13T02:06:24.738Z,80.44
2019-01-13T02:07:24.745Z,80.65
2019-01-13T02:08:24.705Z,80.76
2019-01-13T02:09:24.709Z,80.07
2019-01-13T02:10:24.752Z,79.97
2019-01-13T02:11:24.683Z,80.07
2019-01-13T02:12:24.689Z,79.55
2019-01-13T02:13:24.688Z,79.04
2019-01-13T02:14:24.642Z,79.83
2019-01-13T02:15:24.630Z,79.31
2019-01-13T02:16:24.628Z,79.52
2019-01-13T02:17:24.599Z,79.62
2019-01-13T02:18:24.601Z,79.41
2019-01-13T02:19:24.629Z,79.21
2019-01-13T02:20:24.577Z,79.31
2019-01-13T02:21:24.584Z,78.59
2019-01-13T02:22:24.552Z,79.11
2019-01-13T02:23:24.558Z,79.41
2019-01-13T02:24:24.551Z,79.62
2019-01-13T02:25:24.542Z,79.52
2019-01-13T02:26:24.504Z,79.31
2019-01-13T02:27:24.494Z,79.52
2019-01-13T02:28:24.492Z,79.52
2019-01-13T02:29:24.474Z,79.83
2019-01-13T02:30:24.467Z,79.52
2019-01-13T02:31:24.456Z,79.31
2019-01-13T02:32:24.447Z,79.41
2019-01-13T02:33:24.453Z,79.52
2019-01-13T02:34:24.414Z,79.62
2019-01-13T02:35:24.415Z,79.93
2019-01-13T02:36:24.391Z,80.34
2019-01-13T02:37:24.378Z,79.93
2019-01-13T02:38:24.388Z,80.55
2019-01-13T02:39:24.385Z,80.55
2019-01-13T02:40:24.369Z,80.86
2019-01-13T02:41:24.357Z,80.44
2019-01-13T02:42:24.318Z,80.76
2019-01-13T02:43:24.330Z,80.86
2019-01-13T02:44:24.322Z,81.07
2019-01-13T02:45:24.284Z,81.68
2019-01-13T02:46:24.279Z,81.37
2019-01-13T02:47:24.258Z,82.20
2019-01-13T02:48:24.314Z,81.99
2019-01-13T02:49:24.238Z,81.48
2019-01-13T02:50:24.225Z,81.99
2019-01-13T02:51:24.220Z,82.10
2019-01-13T02:52:24.214Z,82.10
2019-01-13T02:53:24.219Z,82.30
2019-01-13T02:54:24.182Z,83.23
2019-01-13T02:55:24.171Z,82.82
2019-01-13T02:56:24.163Z,82.92
2019-01-13T02:57:24.152Z,82.92
2019-01-13T02:58:24.180Z,82.71
2019-01-13T02:59:24.144Z,82.71
2019-01-13T03:00:24.111Z,82.82
2019-01-13T03:01:24.105Z,83.03
2019-01-13T03:02:24.094Z,83.03
2019-01-13T03:03:24.102Z,82.92
2019-01-13T03:04:24.076Z,82.61
2019-01-13T03:05:24.051Z,82.10
2019-01-13T03:06:24.072Z,81.79
2019-01-13T03:07:24.040Z,82.10
2019-01-13T03:08:24.016Z,82.61
2019-01-13T03:09:24.058Z,83.13
2019-01-13T03:10:23.996Z,83.44
2019-01-13T03:11:23.984Z,84.36
2019-01-13T03:12:23.976Z,84.47
2019-01-13T03:13:23.964Z,84.99
2019-01-13T03:14:23.980Z,85.09
2019-01-13T03:15:23.943Z,85.50
2019-01-13T03:16:23.947Z,86.47
2019-01-13T03:17:23.915Z,86.12
2019-01-13T03:18:23.903Z,86.16
2019-01-13T03:19:23.912Z,86.36
2019-01-13T03:20:23.887Z,86.74
2019-01-13T03:21:23.889Z,86.68
2019-01-13T03:22:23.864Z,86.68
2019-01-13T03:23:23.889Z,86.84
2019-01-13T03:24:23.851Z,86.94
2019-01-13T03:25:23.826Z,86.84
2019-01-13T03:26:23.834Z,86.63
2019-01-13T03:27:23.804Z,86.88
2019-01-13T03:28:23.793Z,86.78
2019-01-13T03:29:23.801Z,86.88
2019-01-13T03:30:23.780Z,86.74
2019-01-13T03:31:23.759Z,86.74
2019-01-13T03:32:23.769Z,86.68
2019-01-13T03:33:23.747Z,86.63
2019-01-13T03:34:23.743Z,86.57
2019-01-13T03:35:23.713Z,86.94
2019-01-13T03:36:23.706Z,86.47
2019-01-13T03:37:23.713Z,86.78
2019-01-13T03:38:23.680Z,87.19
2019-01-13T03:39:23.692Z,87.19
2019-01-13T03:40:23.666Z,86.98
2019-01-13T03:41:23.657Z,87.29
2019-01-13T03:42:23.643Z,87.29
2019-01-13T03:43:23.638Z,87.56
2019-01-13T03:44:23.638Z,87.81
2019-01-13T03:45:23.602Z,87.50
2019-01-13T03:46:23.631Z,87.81
2019-01-13T03:47:23.572Z,87.92
2019-01-13T03:48:23.570Z,87.35
2019-01-13T03:49:23.574Z,86.98
2019-01-13T03:50:23.571Z,87.60
2019-01-13T03:51:23.537Z,87.29
2019-01-13T03:52:23.548Z,87.50
2019-01-13T03:53:23.510Z,88.64
2019-01-13T03:54:23.510Z,88.32
2019-01-13T03:55:23.517Z,88.32
2019-01-13T03:56:23.479Z,88.53
2019-01-13T03:57:23.496Z,88.43
2019-01-13T03:58:23.474Z,88.53
2019-01-13T03:59:23.454Z,88.53
2019-01-13T04:00:23.521Z,88.12
2019-01-13T04:01:23.430Z,88.02
2019-01-13T04:02:23.416Z,88.43
2019-01-13T04:03:23.409Z,88.22
2019-01-13T04:04:23.391Z,88.43
2019-01-13T04:05:23.441Z,88.43
2019-01-13T04:06:23.373Z,88.53
2019-01-13T04:07:23.372Z,88.64
2019-01-13T04:08:23.353Z,88.53
2019-01-13T04:09:23.345Z,88.53
2019-01-13T04:10:23.354Z,88.22
2019-01-13T04:11:23.319Z,88.53
2019-01-13T04:12:23.303Z,88.43
2019-01-13T04:13:23.298Z,88.43
2019-01-13T04:14:23.294Z,88.95
2019-01-13T04:15:23.294Z,88.59
2019-01-13T04:16:23.261Z,88.12
2019-01-13T04:17:23.250Z,88.43
2019-01-13T04:18:23.241Z,88.43
2019-01-13T04:19:23.230Z,88.32
2019-01-13T04:20:23.254Z,88.59
2019-01-13T04:21:23.219Z,88.53
2019-01-13T04:22:23.190Z,88.39
2019-01-13T04:23:23.185Z,88.12
2019-01-13T04:24:23.174Z,88.32
2019-01-13T04:25:23.178Z,88.32
2019-01-13T04:26:23.156Z,88.22
2019-01-13T04:27:23.142Z,88.18
2019-01-13T04:28:23.134Z,88.32
2019-01-13T04:29:23.113Z,88.32
2019-01-13T04:30:23.123Z,88.39
2019-01-13T04:31:26.909Z,87.46
2019-01-13T04:32:23.080Z,87.56
2019-01-13T04:33:23.073Z,87.26
2019-01-13T04:34:23.119Z,87.15
2019-01-13T04:35:23.069Z,87.05
2019-01-13T04:36:23.033Z,86.84
2019-01-13T04:37:23.033Z,87.15
2019-01-13T04:38:23.010Z,86.94
2019-01-13T04:39:23.003Z,87.05
2019-01-13T04:40:23.019Z,86.74
2019-01-13T04:41:22.989Z,86.63
2019-01-13T04:42:22.973Z,86.74
2019-01-13T04:43:22.959Z,86.63
2019-01-13T04:44:22.950Z,87.05
2019-01-13T04:45:22.934Z,87.05
2019-01-13T04:46:22.943Z,87.15
2019-01-13T04:47:22.917Z,86.63
2019-01-13T04:48:22.908Z,87.26
2019-01-13T04:49:22.902Z,87.05
2019-01-13T04:50:22.881Z,87.35
2019-01-13T04:51:22.905Z,87.05
2019-01-13T04:52:22.856Z,87.15
2019-01-13T04:53:22.851Z,87.56
2019-01-13T04:54:22.873Z,87.60
2019-01-13T04:55:22.823Z,87.60
2019-01-13T04:56:22.847Z,87.56
2019-01-13T04:57:22.806Z,87.87
2019-01-13T04:58:22.822Z,88.22
2019-01-13T04:59:22.804Z,88.08
2019-01-13T05:00:22.778Z,88.29
2019-01-13T05:01:22.810Z,88.29
2019-01-13T05:02:22.746Z,88.43
2019-01-13T05:03:22.743Z,88.49
2019-01-13T05:04:22.724Z,88.53
2019-01-13T05:05:22.737Z,88.22
2019-01-13T05:06:22.716Z,88.22
2019-01-13T05:07:22.703Z,88.22
2019-01-13T05:08:22.675Z,88.22
2019-01-13T05:09:22.694Z,88.22
2019-01-13T05:10:22.662Z,88.12
2019-01-13T05:11:22.680Z,88.12
2019-01-13T05:12:22.639Z,88.59
2019-01-13T05:13:22.626Z,88.32
2019-01-13T05:14:22.628Z,88.43
2019-01-13T05:15:22.602Z,88.43
2019-01-13T05:16:22.601Z,88.43
2019-01-13T05:17:22.620Z,88.12
2019-01-13T05:18:22.566Z,88.49
2019-01-13T05:19:22.557Z,88.22
2019-01-13T05:20:22.558Z,88.43
2019-01-13T05:21:22.767Z,88.12
2019-01-13T05:22:22.552Z,88.64
2019-01-13T05:23:22.508Z,88.12
2019-01-13T05:24:22.526Z,87.71
2019-01-13T05:25:22.488Z,88.22
2019-01-13T05:26:22.476Z,88.32
2019-01-13T05:27:22.480Z,88.64
2019-01-13T05:28:22.466Z,88.12
2019-01-13T05:29:22.445Z,88.22
2019-01-13T05:30:22.436Z,88.53
2019-01-13T05:31:22.425Z,89.05
2019-01-13T05:32:22.438Z,88.74
2019-01-13T05:33:22.431Z,89.05
2019-01-13T05:34:22.390Z,89.36
2019-01-13T05:35:22.388Z,89.36
2019-01-13T05:36:22.362Z,89.87
2019-01-13T05:37:22.372Z,90.08
2019-01-13T05:38:22.378Z,89.67
2019-01-13T05:39:22.343Z,89.36
2019-01-13T05:40:22.325Z,89.56
2019-01-13T05:41:22.332Z,89.25
2019-01-13T05:42:22.332Z,89.36
2019-01-13T05:43:22.286Z,89.22
2019-01-13T05:44:22.283Z,89.36
2019-01-13T05:45:22.270Z,89.36
2019-01-13T05:46:22.258Z,89.36
2019-01-13T05:47:22.264Z,88.84
2019-01-13T05:48:22.230Z,88.74
2019-01-13T05:49:22.227Z,89.36
2019-01-13T05:50:22.210Z,88.84
2019-01-13T05:51:22.347Z,88.74
2019-01-13T05:52:22.221Z,89.15
2019-01-13T05:53:22.202Z,88.74
2019-01-13T05:54:22.176Z,88.95
2019-01-13T05:55:22.159Z,89.05
2019-01-13T05:56:22.148Z,89.15
2019-01-13T05:57:22.164Z,89.15
2019-01-13T05:58:22.116Z,88.08
2019-01-13T05:59:22.119Z,88.95
2019-01-13T06:00:22.103Z,88.95
2019-01-13T06:01:22.110Z,88.32
2019-01-13T06:02:22.100Z,88.95
2019-01-13T06:03:22.064Z,88.53
2019-01-13T06:04:22.058Z,88.95
2019-01-13T06:05:22.043Z,89.46
2019-01-13T06:06:22.029Z,89.25
2019-01-13T06:07:22.065Z,89.46
2019-01-13T06:08:22.014Z,89.67
2019-01-13T06:09:22.002Z,89.36
2019-01-13T06:10:21.987Z,89.25
2019-01-13T06:11:21.976Z,89.05
2019-01-13T06:12:21.966Z,89.56
2019-01-13T06:13:21.976Z,88.95
2019-01-13T06:14:21.947Z,89.05
2019-01-13T06:15:21.936Z,88.84
2019-01-13T06:16:21.926Z,88.84
2019-01-13T06:17:21.903Z,88.95
2019-01-13T06:18:21.925Z,88.95
2019-01-13T06:19:21.917Z,88.43
2019-01-13T06:20:21.873Z,88.84
2019-01-13T06:21:21.864Z,88.53
2019-01-13T06:22:21.865Z,88.64
2019-01-13T06:23:21.861Z,88.32
2019-01-13T06:24:21.831Z,88.22
2019-01-13T06:25:21.818Z,87.60
2019-01-13T06:26:21.808Z,87.60
2019-01-13T06:27:21.796Z,87.35
2019-01-13T06:28:21.807Z,87.46
2019-01-13T06:29:21.805Z,87.35
2019-01-13T06:30:21.763Z,87.26
2019-01-13T06:31:21.759Z,87.05
2019-01-13T06:32:21.744Z,87.26
2019-01-13T06:33:21.752Z,87.56
2019-01-13T06:34:21.753Z,87.05
2019-01-13T06:35:21.707Z,87.15
2019-01-13T06:36:21.695Z,87.26
2019-01-13T06:37:21.705Z,86.84
2019-01-13T06:38:21.698Z,87.15
2019-01-13T06:39:21.669Z,87.05
2019-01-13T06:40:21.651Z,87.05
2019-01-13T06:41:21.643Z,87.05
2019-01-13T06:42:21.635Z,86.94
2019-01-13T06:43:21.649Z,87.05
2019-01-13T06:44:21.619Z,87.05
2019-01-13T06:45:21.631Z,87.15
2019-01-13T06:46:21.585Z,87.15
2019-01-13T06:47:21.573Z,87.15
2019-01-13T06:48:21.581Z,87.05
2019-01-13T06:49:21.577Z,87.15
2019-01-13T06:50:21.548Z,87.15
2019-01-13T06:51:21.532Z,87.05
2019-01-13T06:52:21.519Z,86.84
2019-01-13T06:53:21.525Z,87.26
2019-01-13T06:54:21.494Z,87.15
2019-01-13T06:55:21.484Z,87.15
2019-01-13T06:56:21.474Z,86.43
2019-01-13T06:57:21.464Z,86.84
2019-01-13T06:58:21.463Z,86.63
2019-01-13T06:59:21.443Z,86.74
2019-01-13T07:00:21.435Z,86.84
2019-01-13T07:01:21.461Z,86.53
2019-01-13T07:02:21.410Z,86.12
2019-01-13T07:03:21.430Z,86.74
2019-01-13T07:04:21.384Z,86.74
2019-01-13T07:05:21.374Z,86.94
2019-01-13T07:06:21.360Z,86.53
2019-01-13T07:07:21.357Z,86.53
2019-01-13T07:08:21.399Z,86.32
2019-01-13T07:09:21.333Z,86.80
2019-01-13T07:10:21.316Z,88.04
2019-01-13T07:11:21.329Z,88.76
2019-01-13T07:12:21.324Z,88.35
2019-01-13T07:13:21.335Z,88.96
2019-01-13T07:14:21.323Z,86.97
2019-01-13T07:15:21.294Z,87.07
2019-01-13T07:16:21.282Z,86.76
2019-01-13T07:17:21.236Z,86.55
2019-01-13T07:18:21.265Z,86.55
2019-01-13T07:19:21.245Z,85.52
2019-01-13T07:20:21.244Z,84.70
2019-01-13T07:21:21.407Z,84.59
2019-01-13T07:22:21.190Z,84.80
2019-01-13T07:23:21.171Z,84.39
2019-01-13T07:24:21.189Z,84.39
2019-01-13T07:25:21.148Z,84.49
2019-01-13T07:26:21.145Z,84.80
2019-01-13T07:27:21.133Z,84.59
2019-01-13T07:28:21.126Z,84.39
2019-01-13T07:29:21.124Z,83.91
2019-01-13T07:30:22.230Z,84.59
2019-01-13T07:31:21.083Z,84.49
2019-01-13T07:32:21.065Z,84.39
2019-01-13T07:33:21.059Z,85.05
2019-01-13T07:34:21.115Z,84.12
2019-01-13T07:35:21.037Z,84.01
2019-01-13T07:36:21.027Z,84.64
2019-01-13T07:37:21.059Z,84.43
2019-01-13T07:38:21.012Z,84.53
2019-01-13T07:39:21.010Z,84.84
2019-01-13T07:40:20.989Z,84.84
2019-01-13T07:41:20.978Z,84.94
2019-01-13T07:42:20.954Z,85.36
2019-01-13T07:43:20.953Z,85.15
2019-01-13T07:44:20.975Z,85.05
2019-01-13T07:45:20.925Z,85.05
2019-01-13T07:46:20.911Z,85.25
2019-01-13T07:47:20.926Z,85.46
2019-01-13T07:48:20.888Z,85.46
2019-01-13T07:49:20.904Z,85.67
2019-01-13T07:50:20.882Z,85.46
2019-01-13T07:51:20.858Z,85.57
2019-01-13T07:52:20.844Z,85.63
2019-01-13T07:53:20.839Z,85.42
2019-01-13T07:54:20.828Z,84.91
2019-01-13T07:55:20.833Z,84.80
2019-01-13T07:56:20.821Z,85.05
2019-01-13T07:57:20.823Z,84.74
2019-01-13T07:58:20.779Z,84.64
2019-01-13T07:59:20.764Z,84.74
2019-01-13T08:00:20.787Z,85.05
2019-01-13T08:01:20.736Z,84.84
2019-01-13T08:02:20.757Z,84.84
2019-01-13T08:03:20.724Z,84.84
2019-01-13T08:04:20.707Z,85.15
2019-01-13T08:05:20.715Z,85.46
2019-01-13T08:06:20.704Z,85.36
2019-01-13T08:07:20.685Z,84.94
2019-01-13T08:08:20.663Z,84.84
2019-01-13T08:09:20.695Z,85.25
2019-01-13T08:10:20.688Z,85.15
2019-01-13T08:11:20.626Z,84.74
2019-01-13T08:12:20.892Z,84.33
2019-01-13T08:13:20.665Z,84.43
2019-01-13T08:14:20.598Z,84.53
2019-01-13T08:15:20.618Z,84.64
2019-01-13T08:16:20.577Z,84.43
2019-01-13T08:17:20.587Z,84.74
2019-01-13T08:18:20.550Z,84.74
2019-01-13T08:19:20.542Z,83.81
2019-01-13T08:20:20.587Z,84.74
2019-01-13T08:21:20.521Z,84.74
2019-01-13T08:22:20.503Z,84.33
2019-01-13T08:23:20.499Z,84.53
2019-01-13T08:24:20.486Z,84.53
2019-01-13T08:25:20.507Z,84.43
2019-01-13T08:26:20.504Z,84.22
2019-01-13T08:27:20.454Z,84.43
2019-01-13T08:28:20.442Z,84.43
2019-01-13T08:29:20.429Z,84.12
2019-01-13T08:30:20.433Z,84.53
2019-01-13T08:31:20.409Z,84.33
2019-01-13T08:32:24.887Z,84.01
2019-01-13T08:33:20.390Z,83.61
2019-01-13T08:34:20.367Z,84.08
2019-01-13T08:35:20.419Z,85.05
2019-01-13T08:36:20.370Z,84.70
2019-01-13T08:37:20.334Z,84.39
2019-01-13T08:38:20.341Z,84.39
2019-01-13T08:39:20.317Z,84.70
2019-01-13T08:40:20.296Z,84.74
2019-01-13T08:41:20.329Z,84.22
2019-01-13T08:42:20.331Z,83.87
2019-01-13T08:43:20.275Z,84.64
2019-01-13T08:44:20.278Z,84.59
2019-01-13T08:45:20.264Z,84.49
2019-01-13T08:46:20.250Z,84.39
2019-01-13T08:47:20.226Z,84.19
2019-01-13T08:48:20.247Z,84.39
2019-01-13T08:49:20.216Z,84.39
2019-01-13T08:50:20.210Z,84.59
2019-01-13T08:51:20.187Z,84.59
2019-01-13T08:52:20.195Z,84.49
2019-01-13T08:53:20.149Z,84.08
2019-01-13T08:54:20.163Z,84.39
2019-01-13T08:55:20.131Z,84.39
2019-01-13T08:56:21.022Z,84.39
2019-01-13T08:57:20.111Z,85.01
2019-01-13T08:58:20.094Z,84.80
2019-01-13T08:59:20.097Z,84.70
2019-01-13T09:00:20.076Z,84.59
2019-01-13T09:01:20.080Z,84.70
2019-01-13T09:02:20.085Z,84.70
2019-01-13T09:03:20.057Z,84.66
2019-01-13T09:04:20.026Z,84.91
2019-01-13T09:05:20.017Z,84.91
2019-01-13T09:06:20.087Z,84.77
2019-01-13T09:07:20.033Z,84.77
2019-01-13T09:08:19.995Z,84.35
2019-01-13T09:09:19.978Z,83.73
2019-01-13T09:10:19.961Z,84.05
2019-01-13T09:11:19.977Z,84.56
2019-01-13T09:12:19.942Z,84.70
2019-01-13T09:13:19.941Z,84.77
2019-01-13T09:14:19.937Z,84.56
2019-01-13T09:15:19.917Z,84.45
2019-01-13T09:16:19.911Z,84.45
2019-01-13T09:17:19.878Z,84.35
2019-01-13T09:18:19.898Z,84.56
2019-01-13T09:19:19.941Z,84.14
2019-01-13T09:20:20.014Z,84.77
2019-01-13T09:21:19.935Z,84.66
2019-01-13T09:22:20.070Z,84.66
2019-01-13T09:23:19.807Z,84.66
2019-01-13T09:24:19.828Z,84.77
2019-01-13T09:25:19.789Z,84.87
2019-01-13T09:26:19.776Z,85.38
2019-01-13T09:27:19.846Z,85.38
2019-01-13T09:28:19.753Z,85.69
2019-01-13T09:29:19.748Z,85.38
2019-01-13T09:30:19.744Z,85.59
2019-01-13T09:31:19.749Z,86.31
2019-01-13T09:32:19.779Z,86.31
2019-01-13T09:33:19.707Z,86.21
2019-01-13T09:34:19.698Z,85.79
2019-01-13T09:35:19.673Z,86.10
2019-01-13T09:36:19.692Z,86.21
2019-01-13T09:37:19.833Z,86.31
2019-01-13T09:38:19.803Z,86.61
2019-01-13T09:39:19.699Z,86.52
2019-01-13T09:40:20.748Z,86.97
2019-01-13T09:41:19.805Z,86.87
2019-01-13T09:42:19.670Z,87.17
2019-01-13T09:43:19.716Z,87.17
2019-01-13T09:44:20.084Z,87.07
2019-01-13T09:45:19.640Z,86.97
2019-01-13T09:46:19.603Z,86.87
2019-01-13T09:47:19.825Z,86.97
2019-01-13T09:48:19.605Z,87.17
2019-01-13T09:49:19.547Z,87.48
2019-01-13T09:50:19.602Z,87.17
2019-01-13T09:51:19.709Z,86.97
2019-01-13T09:52:19.971Z,86.97
2019-01-13T09:53:19.489Z,86.87
2019-01-13T09:54:19.826Z,87.79
2019-01-13T09:55:19.518Z,87.69
2019-01-13T09:56:19.448Z,88.10
2019-01-13T09:57:19.450Z,88.41
2019-01-13T09:58:19.414Z,88.06
2019-01-13T09:59:19.400Z,88.10
2019-01-13T10:00:19.503Z,88.20
2019-01-13T10:01:19.387Z,87.99
2019-01-13T10:02:19.392Z,88.57
2019-01-13T10:03:19.356Z,89.54
2019-01-13T10:04:19.352Z,88.20
2019-01-13T10:05:19.341Z,87.99
2019-01-13T10:06:19.333Z,88.41
2019-01-13T10:07:19.354Z,88.06
2019-01-13T10:08:19.299Z,88.57
2019-01-13T10:09:19.303Z,88.17
2019-01-13T10:10:19.321Z,87.34
2019-01-13T10:11:19.269Z,88.17
2019-01-13T10:12:19.252Z,87.24
2019-01-13T10:13:19.253Z,87.44
2019-01-13T10:14:19.248Z,88.06
2019-01-13T10:15:19.231Z,89.09
2019-01-13T10:16:19.219Z,88.06
2019-01-13T10:17:19.206Z,88.06
2019-01-13T10:18:19.234Z,87.34
2019-01-13T10:19:19.197Z,87.34
2019-01-13T10:20:19.161Z,87.96
2019-01-13T10:21:19.275Z,88.78
2019-01-13T10:22:19.147Z,93.73
2019-01-13T10:23:19.152Z,91.83
2019-01-13T10:24:19.158Z,90.80
2019-01-13T10:25:19.109Z,88.43
2019-01-13T10:26:19.110Z,88.02
2019-01-13T10:27:19.092Z,88.33
2019-01-13T10:28:19.117Z,88.02
2019-01-13T10:29:19.072Z,88.23
2019-01-13T10:30:19.119Z,87.81
2019-01-13T10:31:19.049Z,87.19
2019-01-13T10:32:19.027Z,88.12
2019-01-13T10:33:19.044Z,88.02
2019-01-13T10:34:19.136Z,88.12
2019-01-13T10:35:18.993Z,87.19
2019-01-13T10:36:19.052Z,86.79
2019-01-13T10:37:18.982Z,86.99
2019-01-13T10:38:18.996Z,86.47
2019-01-13T10:39:18.956Z,86.88
2019-01-13T10:40:18.946Z,87.03
2019-01-13T10:41:18.930Z,86.93
2019-01-13T10:42:19.015Z,87.24
2019-01-13T10:43:18.956Z,87.19
2019-01-13T10:44:18.889Z,87.13
2019-01-13T10:45:18.887Z,86.82
2019-01-13T10:46:18.879Z,87.03
2019-01-13T10:47:18.853Z,86.31
2019-01-13T10:48:18.880Z,86.41
2019-01-13T10:49:18.834Z,87.03
2019-01-13T10:50:18.828Z,87.03
2019-01-13T10:51:18.808Z,86.82
2019-01-13T10:52:18.796Z,87.03
2019-01-13T10:53:18.796Z,87.03
2019-01-13T10:54:20.114Z,87.44
2019-01-13T10:55:18.764Z,87.13
2019-01-13T10:56:18.889Z,87.13
2019-01-13T10:57:18.772Z,86.82
2019-01-13T10:58:18.729Z,86.97
2019-01-13T10:59:18.805Z,87.48
2019-01-13T11:00:18.735Z,87.79
2019-01-13T11:01:18.710Z,87.99
2019-01-13T11:02:18.683Z,87.17
2019-01-13T11:03:20.787Z,87.38
2019-01-13T11:04:18.734Z,87.38
2019-01-13T11:05:18.670Z,87.27
2019-01-13T11:06:18.684Z,87.17
2019-01-13T11:07:18.658Z,87.07
2019-01-13T11:08:18.647Z,87.27
2019-01-13T11:09:18.623Z,87.38
2019-01-13T11:10:18.604Z,87.90
2019-01-13T11:11:18.581Z,87.27
2019-01-13T11:12:18.570Z,87.69
2019-01-13T11:13:18.567Z,87.27
2019-01-13T11:14:18.603Z,87.90
2019-01-13T11:15:21.832Z,87.99
2019-01-13T11:16:18.519Z,88.10
2019-01-13T11:17:18.511Z,87.96
2019-01-13T11:18:18.498Z,88.31
2019-01-13T11:19:18.580Z,88.51
2019-01-13T11:20:18.478Z,88.62
2019-01-13T11:21:18.463Z,88.41
2019-01-13T11:22:18.473Z,88.10
2019-01-13T11:23:18.453Z,88.10
2019-01-13T11:24:18.488Z,88.31
2019-01-13T11:25:18.444Z,88.17
2019-01-13T11:26:18.407Z,88.37
2019-01-13T11:27:18.450Z,88.41
2019-01-13T11:28:18.419Z,88.20
2019-01-13T11:29:18.580Z,88.51
2019-01-13T11:30:18.375Z,88.47
2019-01-13T11:31:18.392Z,88.62
2019-01-13T11:32:18.395Z,88.78
2019-01-13T11:33:18.386Z,88.82
2019-01-13T11:34:18.392Z,88.17
2019-01-13T11:35:18.355Z,88.20
2019-01-13T11:36:18.323Z,88.41
2019-01-13T11:37:18.326Z,88.51
2019-01-13T11:38:18.316Z,89.03
2019-01-13T11:39:18.255Z,88.72
2019-01-13T11:40:18.264Z,88.41
2019-01-13T11:41:18.242Z,88.72
2019-01-13T11:42:18.232Z,88.82
2019-01-13T11:43:18.218Z,89.03
2019-01-13T11:44:18.321Z,89.03
2019-01-13T11:45:18.601Z,89.23
2019-01-13T11:46:18.188Z,89.54
2019-01-13T11:47:18.175Z,89.85
2019-01-13T11:48:18.171Z,89.44
2019-01-13T11:49:18.154Z,89.13
2019-01-13T11:50:18.386Z,89.54
2019-01-13T11:51:18.127Z,89.23
2019-01-13T11:52:18.108Z,89.54
2019-01-13T11:53:18.126Z,90.16
2019-01-13T11:54:18.088Z,90.16
2019-01-13T11:55:18.163Z,89.95
2019-01-13T11:56:18.062Z,89.75
2019-01-13T11:57:18.051Z,90.06
2019-01-13T11:58:18.042Z,89.65
2019-01-13T11:59:18.045Z,90.57
2019-01-13T12:00:18.063Z,90.37
2019-01-13T12:01:18.006Z,90.26
2019-01-13T12:02:18.045Z,90.88
2019-01-13T12:03:17.989Z,90.26
2019-01-13T12:04:17.998Z,89.75
2019-01-13T12:05:18.017Z,90.06
2019-01-13T12:06:17.954Z,89.85
2019-01-13T12:07:17.973Z,90.16
2019-01-13T12:08:17.937Z,89.95
2019-01-13T12:09:17.957Z,90.06
2019-01-13T12:10:17.930Z,89.95
2019-01-13T12:11:17.928Z,89.34
2019-01-13T12:12:17.891Z,89.95
2019-01-13T12:13:17.872Z,89.75
2019-01-13T12:14:17.862Z,90.00
2019-01-13T12:15:17.869Z,90.31
2019-01-13T12:16:17.880Z,90.06
2019-01-13T12:17:17.885Z,90.51
2019-01-13T12:18:17.905Z,90.26
2019-01-13T12:19:17.883Z,90.37
2019-01-13T12:20:17.837Z,90.06
2019-01-13T12:21:17.807Z,90.16
2019-01-13T12:22:17.798Z,90.31
2019-01-13T12:23:17.816Z,90.26
2019-01-13T12:24:18.655Z,90.92
2019-01-13T12:25:17.768Z,90.88
2019-01-13T12:26:17.740Z,90.67
2019-01-13T12:27:17.747Z,90.57
2019-01-13T12:28:17.738Z,90.47
2019-01-13T12:29:17.699Z,90.57
2019-01-13T12:30:17.687Z,90.47
2019-01-13T12:31:17.699Z,91.13
2019-01-13T12:32:17.664Z,90.88
2019-01-13T12:33:24.465Z,91.24
2019-01-13T12:34:18.685Z,90.88
2019-01-13T12:35:17.629Z,91.19
2019-01-13T12:36:17.660Z,91.19
2019-01-13T12:37:17.606Z,90.78
2019-01-13T12:38:17.607Z,91.03
2019-01-13T12:39:17.623Z,90.88
2019-01-13T12:40:17.583Z,90.92
2019-01-13T12:41:17.631Z,91.09
2019-01-13T12:42:17.609Z,90.88
2019-01-13T12:43:17.551Z,91.19
2019-01-13T12:44:17.609Z,91.13
2019-01-13T12:45:17.789Z,90.88
2019-01-13T12:46:17.567Z,90.78
2019-01-13T12:47:17.510Z,90.67
2019-01-13T12:48:18.011Z,90.88
2019-01-13T12:49:17.674Z,90.99
2019-01-13T12:50:17.472Z,91.09
2019-01-13T12:51:17.505Z,91.30
2019-01-13T12:52:17.543Z,91.40